createdAt,value
2018-12-14T00:01:29.343Z,5.53
2018-12-14T00:03:57.450Z,4.83
2018-12-14T00:06:25.215Z,4.28
2018-12-14T00:08:52.931Z,5.58
2018-12-14T00:11:21.280Z,5.83
2018-12-14T00:13:49.145Z,5.35
2018-12-14T00:16:17.131Z,5.47
2018-12-14T00:18:44.902Z,5.28
2018-12-14T00:21:12.649Z,5.00
2018-12-14T00:23:41.101Z,4.87
2018-12-14T00:26:09.018Z,6.92
2018-12-14T00:28:36.760Z,5.58
2018-12-14T00:31:04.509Z,5.62
2018-12-14T00:33:32.315Z,5.53
2018-12-14T00:36:00.493Z,5.20
2018-12-14T00:38:28.479Z,5.15
2018-12-14T00:40:57.109Z,5.22
2018-12-14T00:43:25.299Z,6.05
2018-12-14T00:45:53.103Z,5.90
2018-12-14T00:48:20.922Z,5.58
2018-12-14T00:50:48.733Z,5.45
2018-12-14T00:53:17.028Z,6.12
2018-12-14T00:55:44.754Z,5.95
2018-12-14T00:58:13.347Z,5.40
2018-12-14T01:00:41.559Z,5.85
2018-12-14T01:03:10.612Z,6.25
2018-12-14T01:05:38.338Z,4.90
2018-12-14T01:08:07.945Z,4.95
2018-12-14T01:10:36.758Z,5.33
2018-12-14T01:13:05.858Z,6.40
2018-12-14T01:15:33.882Z,5.58
2018-12-14T01:18:01.607Z,5.33
2018-12-14T01:20:32.587Z,5.42
2018-12-14T01:23:00.620Z,4.62
2018-12-14T01:25:28.364Z,4.65
2018-12-14T01:27:56.375Z,5.22
2018-12-14T01:30:24.150Z,5.85
2018-12-14T01:32:51.961Z,5.47
2018-12-14T01:35:19.699Z,5.20
2018-12-14T01:37:47.455Z,5.60
2018-12-14T01:40:15.264Z,5.33
2018-12-14T01:42:44.169Z,5.42
2018-12-14T01:45:11.894Z,5.03
2018-12-14T01:47:39.638Z,5.22
2018-12-14T01:50:07.714Z,5.72
2018-12-14T01:52:35.721Z,5.25
2018-12-14T01:55:03.526Z,5.95
2018-12-14T01:57:31.557Z,4.67
2018-12-14T02:00:00.650Z,5.45
2018-12-14T02:02:28.375Z,5.10
2018-12-14T02:04:56.103Z,4.78
2018-12-14T02:07:24.391Z,5.60
2018-12-14T02:09:52.121Z,5.05
2018-12-14T02:12:19.996Z,5.58
2018-12-14T02:14:48.712Z,4.92
2018-12-14T02:17:16.743Z,5.00
2018-12-14T02:19:44.535Z,5.72
2018-12-14T02:22:12.298Z,5.55
2018-12-14T02:24:40.056Z,5.95
2018-12-14T02:27:07.813Z,5.55
2018-12-14T02:29:35.534Z,5.47
2018-12-14T02:32:03.331Z,5.53
2018-12-14T02:34:31.118Z,5.47
2018-12-14T02:36:59.174Z,5.62
2018-12-14T02:39:26.909Z,5.60
2018-12-14T02:41:54.772Z,5.75
2018-12-14T02:44:22.507Z,5.37
2018-12-14T02:46:50.242Z,6.05
2018-12-14T02:49:18.472Z,6.30
2018-12-14T02:51:46.196Z,5.85
2018-12-14T02:54:13.937Z,7.00
2018-12-14T02:56:41.646Z,5.90
2018-12-14T02:59:09.402Z,5.62
2018-12-14T03:01:37.477Z,5.67
2018-12-14T03:04:05.372Z,5.85
2018-12-14T03:06:33.101Z,6.20
2018-12-14T03:09:00.829Z,5.47
2018-12-14T03:11:29.336Z,6.03
2018-12-14T03:13:57.535Z,6.42
2018-12-14T03:16:25.507Z,5.03
2018-12-14T03:18:53.226Z,5.58
2018-12-14T03:21:20.942Z,5.60
2018-12-14T03:23:49.058Z,6.12
2018-12-14T03:26:16.777Z,5.55
2018-12-14T03:28:44.747Z,5.87
2018-12-14T03:31:12.526Z,6.25
2018-12-14T03:33:40.632Z,5.90
2018-12-14T03:36:15.278Z,4.45
2018-12-14T03:38:43.245Z,6.05
2018-12-14T03:41:20.840Z,6.03
2018-12-14T03:43:54.812Z,5.83
2018-12-14T03:46:27.923Z,4.95
2018-12-14T03:49:00.569Z,5.72
2018-12-14T03:51:32.251Z,5.08
2018-12-14T03:53:59.986Z,5.60
2018-12-14T03:56:27.720Z,4.75
2018-12-14T03:58:59.913Z,5.28
2018-12-14T04:01:28.101Z,5.87
2018-12-14T04:03:56.768Z,5.67
2018-12-14T04:06:27.960Z,5.72
2018-12-14T04:08:57.950Z,5.80
2018-12-14T04:11:26.710Z,5.37
2018-12-14T04:13:54.442Z,6.28
2018-12-14T04:16:22.166Z,6.50
2018-12-14T04:18:49.881Z,5.87
2018-12-14T04:21:17.642Z,6.83
2018-12-14T04:23:45.663Z,5.25
2018-12-14T04:26:13.527Z,6.30
2018-12-14T04:28:41.253Z,5.95
2018-12-14T04:31:09.267Z,6.50
2018-12-14T04:33:37.338Z,5.60
2018-12-14T04:36:05.059Z,6.05
2018-12-14T04:38:32.843Z,6.58
2018-12-14T04:41:00.552Z,5.45
2018-12-14T04:43:28.306Z,6.50
2018-12-14T04:45:56.021Z,7.03
2018-12-14T04:48:23.746Z,6.20
2018-12-14T04:50:51.545Z,5.45
2018-12-14T04:53:19.574Z,6.55
2018-12-14T04:55:47.294Z,7.03
2018-12-14T04:58:15.073Z,6.28
2018-12-14T05:00:43.174Z,5.85
2018-12-14T05:03:10.892Z,6.35
2018-12-14T05:05:38.655Z,5.97
2018-12-14T05:08:06.372Z,5.95
2018-12-14T05:10:34.216Z,6.58
2018-12-14T05:13:01.974Z,6.37
2018-12-14T05:15:29.746Z,6.72
2018-12-14T05:17:57.810Z,7.08
2018-12-14T05:20:25.539Z,6.17
2018-12-14T05:22:53.258Z,6.47
2018-12-14T05:25:21.281Z,7.25
2018-12-14T05:27:49.014Z,7.22
2018-12-14T05:30:16.925Z,7.10
2018-12-14T05:32:44.682Z,6.87
2018-12-14T05:35:12.390Z,7.87
2018-12-14T05:37:40.124Z,7.25
2018-12-14T05:40:07.862Z,7.17
2018-12-14T05:42:35.873Z,7.62
2018-12-14T05:45:03.774Z,7.62
2018-12-14T05:47:31.585Z,6.92
2018-12-14T05:49:59.659Z,6.65
2018-12-14T05:52:31.885Z,6.20
2018-12-14T05:55:02.241Z,7.08
2018-12-14T05:57:33.768Z,6.53
2018-12-14T06:00:07.768Z,7.17
2018-12-14T06:02:36.691Z,6.62
2018-12-14T06:05:08.077Z,8.00
2018-12-14T06:07:36.190Z,6.03
2018-12-14T06:10:07.639Z,6.92
2018-12-14T06:12:40.382Z,6.60
2018-12-14T06:15:08.151Z,7.53
2018-12-14T06:17:37.099Z,7.17
2018-12-14T06:20:06.620Z,7.20
2018-12-14T06:22:35.033Z,7.37
2018-12-14T06:25:04.596Z,7.33
2018-12-14T06:27:32.518Z,8.00
2018-12-14T06:30:00.263Z,9.13
2018-12-14T06:32:28.765Z,7.17
2018-12-14T06:34:56.550Z,8.68
2018-12-14T06:37:24.721Z,7.15
2018-12-14T06:39:53.602Z,7.90
2018-12-14T06:42:22.918Z,8.58
2018-12-14T06:44:52.436Z,7.20
2018-12-14T06:47:20.498Z,6.92
2018-12-14T06:49:50.637Z,7.33
2018-12-14T06:52:19.104Z,7.28
2018-12-14T06:54:47.258Z,7.70
2018-12-14T06:57:15.641Z,7.22
2018-12-14T06:59:44.128Z,7.67
2018-12-14T07:02:12.003Z,7.67
2018-12-14T07:04:39.739Z,7.45
2018-12-14T07:07:07.925Z,7.35
2018-12-14T07:09:36.345Z,8.08
2018-12-14T07:12:04.271Z,7.22
2018-12-14T07:14:35.981Z,7.87
2018-12-14T07:17:08.856Z,8.05
2018-12-14T07:19:36.581Z,8.25
2018-12-14T07:22:04.240Z,7.95
2018-12-14T07:24:33.177Z,8.13
2018-12-14T07:27:01.507Z,7.15
2018-12-14T07:31:50.482Z,7.65
2018-12-14T07:34:18.339Z,7.83
2018-12-14T07:36:46.416Z,8.63
2018-12-14T07:39:15.438Z,7.97
2018-12-14T07:41:43.960Z,7.47
2018-12-14T07:44:11.796Z,8.00
2018-12-14T07:46:39.620Z,6.90
2018-12-14T07:49:14.207Z,7.87
2018-12-14T07:51:42.019Z,8.03
2018-12-14T07:54:10.845Z,7.85
2018-12-14T07:56:39.171Z,9.58
2018-12-14T07:59:08.509Z,8.60
2018-12-14T08:01:36.318Z,7.22
2018-12-14T08:04:04.223Z,7.62
2018-12-14T08:06:33.862Z,7.60
2018-12-14T08:09:05.754Z,9.00
2018-12-14T08:11:33.534Z,7.83
2018-12-14T08:14:05.944Z,7.37
2018-12-14T08:16:33.716Z,7.45
2018-12-14T08:19:01.445Z,7.97
2018-12-14T08:21:30.544Z,8.33
2018-12-14T08:24:05.947Z,6.78
2018-12-14T08:26:34.720Z,8.50
2018-12-14T08:29:02.880Z,7.55
2018-12-14T08:31:32.398Z,8.03
2018-12-14T08:34:10.600Z,8.10
2018-12-14T08:36:46.223Z,6.25
2018-12-14T08:39:15.719Z,7.17
2018-12-14T08:41:43.463Z,6.97
2018-12-14T08:44:11.292Z,6.55
2018-12-14T08:46:39.885Z,8.53
2018-12-14T08:49:08.038Z,8.85
2018-12-14T08:51:37.207Z,7.47
2018-12-14T08:54:05.573Z,6.22
2018-12-14T08:56:33.534Z,6.08
2018-12-14T08:59:01.426Z,7.97
2018-12-14T09:01:31.108Z,8.43
2018-12-14T09:04:00.669Z,7.17
2018-12-14T09:06:28.536Z,7.50
2018-12-14T09:08:56.436Z,6.78
2018-12-14T09:11:24.379Z,6.65
2018-12-14T09:14:07.966Z,6.67
2018-12-14T09:16:35.891Z,6.25
2018-12-14T09:19:03.865Z,7.60
2018-12-14T09:21:33.660Z,6.55
2018-12-14T09:24:01.486Z,6.83
2018-12-14T09:26:29.340Z,6.15
2018-12-14T09:29:00.443Z,6.62
2018-12-14T09:31:36.520Z,6.10
2018-12-14T09:34:04.543Z,6.45
2018-12-14T09:36:32.425Z,6.75
2018-12-14T09:39:00.294Z,7.05
2018-12-14T09:41:28.851Z,6.83
2018-12-14T09:43:57.145Z,6.50
2018-12-14T09:46:25.680Z,6.33
2018-12-14T09:48:55.100Z,6.65
2018-12-14T09:51:24.367Z,6.62
2018-12-14T09:53:52.121Z,6.45
2018-12-14T09:56:22.735Z,6.40
2018-12-14T09:58:52.553Z,9.75
2018-12-14T10:01:20.804Z,8.63
2018-12-14T10:03:50.628Z,7.92
2018-12-14T10:06:18.779Z,6.83
2018-12-14T10:08:46.544Z,7.95
2018-12-14T10:11:15.674Z,6.95
2018-12-14T10:13:44.540Z,6.05
2018-12-14T10:16:13.139Z,6.87
2018-12-14T10:18:41.763Z,6.17
2018-12-14T10:21:12.715Z,6.33
2018-12-14T10:23:41.443Z,6.55
2018-12-14T10:26:09.338Z,6.50
2018-12-14T10:28:38.238Z,4.87
2018-12-14T10:31:06.030Z,6.35
2018-12-14T10:33:34.452Z,6.72
2018-12-14T10:36:03.182Z,6.67
2018-12-14T10:38:30.940Z,5.47
2018-12-14T10:40:59.374Z,8.73
2018-12-14T10:43:27.460Z,5.33
2018-12-14T10:45:57.868Z,6.40
2018-12-14T10:48:25.830Z,5.90
2018-12-14T10:50:54.087Z,5.65
2018-12-14T10:53:23.036Z,5.62
2018-12-14T10:55:50.775Z,5.55
2018-12-14T10:58:20.626Z,5.40
2018-12-14T11:00:54.175Z,6.12
2018-12-14T11:03:21.964Z,4.95
2018-12-14T11:05:50.832Z,7.08
2018-12-14T11:08:19.007Z,5.78
2018-12-14T11:10:46.736Z,5.87
2018-12-14T11:13:14.474Z,6.37
2018-12-14T11:15:42.895Z,6.80
2018-12-14T11:18:12.142Z,5.83
2018-12-14T11:20:40.904Z,6.17
2018-12-14T11:23:10.709Z,6.35
2018-12-14T11:25:38.766Z,5.90
2018-12-14T11:28:07.628Z,5.50
2018-12-14T11:30:35.577Z,5.55
2018-12-14T11:33:03.355Z,6.33
2018-12-14T11:35:31.254Z,5.85
2018-12-14T11:38:02.464Z,5.65
2018-12-14T11:40:30.686Z,5.03
2018-12-14T11:42:58.496Z,6.28
2018-12-14T11:45:27.265Z,5.95
2018-12-14T11:47:55.165Z,6.45
2018-12-14T11:50:23.045Z,5.50
2018-12-14T11:52:52.443Z,5.22
2018-12-14T11:55:21.015Z,6.37
2018-12-14T11:57:49.415Z,6.20
2018-12-14T12:00:18.677Z,6.15
2018-12-14T12:02:46.550Z,4.85
2018-12-14T12:05:14.521Z,5.15
2018-12-14T12:07:43.715Z,6.15
2018-12-14T12:10:12.491Z,5.15
2018-12-14T12:12:40.766Z,5.33
2018-12-14T12:15:09.669Z,6.05
2018-12-14T12:17:40.847Z,5.05
2018-12-14T12:20:08.657Z,5.35
2018-12-14T12:22:36.645Z,5.42
2018-12-14T12:25:05.895Z,5.33
2018-12-14T12:27:34.820Z,4.80
2018-12-14T12:30:02.814Z,5.87
2018-12-14T12:32:30.701Z,5.42
2018-12-14T12:34:58.570Z,5.50
2018-12-14T12:37:27.225Z,9.65
2018-12-14T12:39:57.585Z,7.80
2018-12-14T12:42:28.471Z,5.70
2018-12-14T12:44:58.551Z,6.78
2018-12-14T12:47:26.369Z,5.87
2018-12-14T12:49:56.588Z,5.83
2018-12-14T12:52:24.522Z,5.50
2018-12-14T12:54:52.305Z,5.55
2018-12-14T12:57:20.557Z,6.10
2018-12-14T12:59:52.648Z,5.55
2018-12-14T13:02:20.540Z,5.60
2018-12-14T13:04:48.557Z,5.65
2018-12-14T13:07:18.229Z,5.60
2018-12-14T13:09:46.130Z,6.12
2018-12-14T13:12:13.881Z,7.67
2018-12-14T13:14:43.388Z,6.22
2018-12-14T13:17:13.249Z,6.17
2018-12-14T13:19:41.277Z,5.03
2018-12-14T13:22:11.761Z,5.72
2018-12-14T13:24:39.743Z,5.60
2018-12-14T13:27:09.521Z,4.90
2018-12-14T13:29:37.298Z,5.67
2018-12-14T13:32:05.706Z,5.70
2018-12-14T13:34:33.642Z,5.75
2018-12-14T13:37:01.391Z,6.15
2018-12-14T13:39:29.199Z,8.38
2018-12-14T13:41:57.120Z,6.37
2018-12-14T13:44:25.745Z,5.15
2018-12-14T13:46:54.558Z,5.20
2018-12-14T13:49:24.755Z,5.35
2018-12-14T13:51:53.571Z,6.05
2018-12-14T13:54:21.717Z,5.72
2018-12-14T13:56:58.697Z,5.95
2018-12-14T13:59:27.666Z,5.72
2018-12-14T14:01:55.517Z,4.92
2018-12-14T14:04:23.507Z,4.20
2018-12-14T14:06:51.553Z,4.62
2018-12-14T14:09:20.160Z,4.83
2018-12-14T14:11:48.179Z,5.00
2018-12-14T14:14:16.252Z,4.95
2018-12-14T14:16:44.537Z,4.60
2018-12-14T14:19:12.283Z,5.05
2018-12-14T14:21:40.681Z,4.67
2018-12-14T14:24:09.755Z,5.28
2018-12-14T14:26:44.469Z,5.10
2018-12-14T14:29:10.372Z,5.15
2018-12-14T14:31:38.487Z,5.12
2018-12-14T14:34:06.392Z,5.10
2018-12-14T14:36:35.066Z,5.72
2018-12-14T14:39:06.820Z,4.58
2018-12-14T14:42:09.646Z,5.60
2018-12-14T14:44:37.704Z,6.35
2018-12-14T14:47:05.755Z,5.12
2018-12-14T14:50:09.138Z,5.28
2018-12-14T14:52:36.957Z,4.83
2018-12-14T14:55:40.212Z,5.50
2018-12-14T14:58:10.626Z,5.67
2018-12-14T15:00:40.574Z,6.25
2018-12-14T15:06:43.590Z,5.60
2018-12-14T15:09:12.120Z,5.60
2018-12-14T15:11:40.019Z,5.92
2018-12-14T15:14:46.185Z,5.22
2018-12-14T15:17:15.260Z,4.97
2018-12-14T15:20:07.923Z,5.55
2018-12-14T15:22:44.534Z,5.42
2018-12-14T15:25:47.662Z,6.05
2018-12-14T15:28:16.616Z,4.67
2018-12-14T15:31:19.880Z,5.72
2018-12-14T15:33:47.761Z,5.12
2018-12-14T15:39:24.554Z,6.28
2018-12-14T15:41:56.375Z,6.33
2018-12-14T15:44:54.335Z,6.03
2018-12-14T15:47:22.109Z,5.85
2018-12-14T15:50:24.550Z,6.47
2018-12-14T15:52:52.591Z,4.72
2018-12-14T15:55:21.189Z,6.45
2018-12-14T16:04:03.348Z,5.33
2018-12-14T16:06:34.999Z,6.28
2018-12-14T16:09:04.410Z,6.30
2018-12-14T16:11:32.638Z,5.65
2018-12-14T16:17:08.755Z,5.92
2018-12-14T16:19:37.195Z,6.20
2018-12-14T16:22:06.275Z,5.60
2018-12-14T16:24:34.835Z,5.37
2018-12-14T16:27:03.505Z,5.92
2018-12-14T16:29:31.689Z,5.83
2018-12-14T16:32:00.217Z,6.08
2018-12-14T16:34:31.155Z,6.33
2018-12-14T16:36:59.182Z,6.90
2018-12-14T16:39:28.102Z,7.65
2018-12-14T16:42:17.752Z,7.45
2018-12-14T16:44:45.695Z,6.60
2018-12-14T16:47:14.270Z,7.72
2018-12-14T16:52:50.833Z,5.20
2018-12-14T16:58:26.341Z,6.65
2018-12-14T17:01:30.157Z,6.37
2018-12-14T17:03:59.310Z,7.60
2018-12-14T17:09:34.443Z,6.75
2018-12-14T17:12:05.900Z,6.30
2018-12-14T17:14:34.622Z,6.30
2018-12-14T17:17:04.367Z,7.47
2018-12-14T17:22:39.159Z,9.33
2018-12-14T17:28:15.662Z,9.13
2018-12-14T17:33:50.597Z,9.05
2018-12-14T17:36:25.518Z,6.05
2018-12-14T17:38:53.447Z,8.25
2018-12-14T17:41:21.500Z,7.17
2018-12-14T17:46:57.252Z,8.58
2018-12-14T17:52:32.716Z,8.58
2018-12-14T17:55:35.682Z,10.00
2018-12-14T17:58:03.638Z,7.62
2018-12-14T18:03:39.825Z,6.15
2018-12-14T18:06:07.605Z,10.10
2018-12-14T18:08:36.506Z,6.78
2018-12-14T18:11:05.218Z,6.87
2018-12-14T18:16:42.111Z,6.28
2018-12-14T18:22:21.289Z,7.50
2018-12-14T18:27:56.087Z,8.65
2018-12-14T18:33:33.372Z,6.08
2018-12-14T18:36:36.557Z,7.08
2018-12-14T18:39:05.942Z,8.30
2018-12-14T18:42:03.270Z,7.22
2018-12-14T18:44:31.175Z,7.60
2018-12-14T18:47:01.871Z,6.65
2018-12-14T18:49:30.486Z,6.75
2018-12-14T18:51:58.278Z,10.15
2018-12-14T18:54:32.066Z,9.55
2018-12-14T18:56:59.839Z,11.28
2018-12-14T18:59:27.849Z,8.43
2018-12-14T19:01:56.190Z,7.35
2018-12-14T19:04:26.583Z,7.22
2018-12-14T19:06:55.065Z,6.95
2018-12-14T19:09:25.253Z,6.92
2018-12-14T19:11:54.422Z,11.30
2018-12-14T19:14:22.255Z,8.20
2018-12-14T19:16:53.419Z,7.10
2018-12-14T19:19:21.911Z,6.22
2018-12-14T19:21:50.163Z,6.90
2018-12-14T19:24:19.040Z,6.62
2018-12-14T19:26:48.237Z,6.92
2018-12-14T19:29:16.286Z,7.00
2018-12-14T19:31:44.649Z,7.10
2018-12-14T19:34:15.436Z,7.08
2018-12-14T19:36:46.298Z,7.03
2018-12-14T19:39:17.490Z,7.85
2018-12-14T19:41:47.565Z,6.45
2018-12-14T19:44:17.077Z,6.12
2018-12-14T19:46:46.480Z,5.53
2018-12-14T19:49:14.271Z,6.20
2018-12-14T19:51:44.308Z,5.60
2018-12-14T19:54:14.777Z,6.50
2018-12-14T19:56:46.603Z,7.37
2018-12-14T19:59:14.342Z,8.60
2018-12-14T20:01:42.259Z,7.78
2018-12-14T20:04:10.314Z,7.45
2018-12-14T20:06:38.808Z,6.97
2018-12-14T20:09:06.912Z,9.33
2018-12-14T20:11:37.794Z,7.78
2018-12-14T20:14:05.547Z,7.10
2018-12-14T20:16:34.216Z,8.40
2018-12-14T20:19:06.339Z,7.12
2018-12-14T20:21:34.594Z,7.50
2018-12-14T20:24:06.571Z,7.42
2018-12-14T20:26:35.198Z,6.85
2018-12-14T20:29:04.146Z,6.15
2018-12-14T20:31:32.011Z,7.03
2018-12-14T20:34:01.386Z,6.47
2018-12-14T20:36:32.749Z,7.62
2018-12-14T20:39:02.235Z,7.47
2018-12-14T20:41:30.903Z,6.33
2018-12-14T20:44:00.956Z,6.87
2018-12-14T20:46:30.395Z,7.60
2018-12-14T20:48:59.052Z,7.53
2018-12-14T20:51:28.447Z,6.30
2018-12-14T20:53:56.518Z,6.45
2018-12-14T20:56:25.602Z,6.90
2018-12-14T20:58:54.421Z,7.22
2018-12-14T21:01:22.922Z,6.85
2018-12-14T21:03:52.290Z,6.55
2018-12-14T21:06:20.826Z,6.47
2018-12-14T21:08:50.645Z,6.80
2018-12-14T21:11:18.784Z,6.37
2018-12-14T21:13:51.042Z,7.15
2018-12-14T21:16:25.891Z,6.42
2018-12-14T21:18:51.912Z,7.05
2018-12-14T21:21:20.624Z,6.03
2018-12-14T21:23:48.775Z,7.12
2018-12-14T21:26:17.671Z,7.53
2018-12-14T21:28:48.264Z,6.58
2018-12-14T21:31:16.995Z,7.95
2018-12-14T21:33:45.405Z,8.03
2018-12-14T21:36:13.146Z,6.65
2018-12-14T21:38:41.202Z,6.95
2018-12-14T21:41:09.594Z,7.25
2018-12-14T21:43:37.318Z,6.25
2018-12-14T21:46:05.626Z,10.08
2018-12-14T21:48:34.257Z,7.58
2018-12-14T21:51:02.302Z,7.30
2018-12-14T21:53:31.593Z,6.85
2018-12-14T21:56:00.060Z,9.30
2018-12-14T21:58:28.731Z,8.18
2018-12-14T22:00:58.156Z,7.53
2018-12-14T22:03:26.199Z,7.65
2018-12-14T22:05:53.919Z,6.70
2018-12-14T22:08:21.676Z,6.00
2018-12-14T22:10:49.434Z,6.05
2018-12-14T22:13:17.169Z,6.50
2018-12-14T22:15:46.271Z,6.92
2018-12-14T22:18:14.162Z,6.50
2018-12-14T22:20:42.520Z,6.90
2018-12-14T22:23:12.534Z,6.97
2018-12-14T22:25:40.328Z,6.78
2018-12-14T22:28:08.074Z,6.70
2018-12-14T22:30:35.805Z,5.53
2018-12-14T22:33:04.758Z,5.80
2018-12-14T22:35:32.518Z,5.37
2018-12-14T22:38:00.279Z,5.50
2018-12-14T22:40:28.262Z,5.95
2018-12-14T22:42:56.647Z,6.67
2018-12-14T22:45:24.946Z,5.97
2018-12-14T22:47:52.681Z,6.53
2018-12-14T22:50:20.521Z,6.03
2018-12-14T22:52:49.266Z,6.47
2018-12-14T22:55:17.304Z,6.97
2018-12-14T22:57:47.076Z,6.33
2018-12-14T23:00:18.624Z,6.25
2018-12-14T23:03:00.198Z,6.37
2018-12-14T23:05:31.471Z,7.58
2018-12-14T23:08:01.996Z,5.85
2018-12-14T23:10:29.720Z,6.97
2018-12-14T23:12:58.940Z,6.37
2018-12-14T23:15:26.669Z,6.03
2018-12-14T23:17:54.830Z,5.53
2018-12-14T23:20:22.772Z,5.60
2018-12-14T23:22:50.823Z,5.90
2018-12-14T23:25:19.270Z,5.95
2018-12-14T23:27:48.485Z,6.42
2018-12-14T23:30:16.537Z,5.58
2018-12-14T23:32:44.255Z,6.87
2018-12-14T23:35:12.458Z,6.53
2018-12-14T23:37:40.212Z,5.95
2018-12-14T23:40:08.941Z,6.40
2018-12-14T23:42:37.197Z,5.97
2018-12-14T23:45:05.849Z,5.78
2018-12-14T23:47:33.611Z,6.37
2018-12-14T23:50:02.007Z,5.95
2018-12-14T23:52:30.092Z,5.55
2018-12-14T23:54:57.803Z,6.70
2018-12-14T23:57:25.568Z,6.17
2018-12-14T23:59:54.229Z,5.90
